createdAt,value
2023-03-18T00:03:48.772Z,12.00
2023-03-18T00:06:20.659Z,11.90
2023-03-18T00:11:29.802Z,11.70
2023-03-18T00:13:56.574Z,11.60
2023-03-18T00:22:11.662Z,11.40
2023-03-18T00:27:50.163Z,11.50
2023-03-18T00:30:17.186Z,11.50
2023-03-18T00:32:56.834Z,11.50
2023-03-18T00:35:26.204Z,11.50
2023-03-18T00:37:53.211Z,11.50
2023-03-18T00:40:36.162Z,11.50
2023-03-18T00:43:03.262Z,11.50
2023-03-18T00:45:30.036Z,11.50
2023-03-18T00:48:21.343Z,11.50
2023-03-18T00:50:58.593Z,11.40
2023-03-18T01:04:24.110Z,11.10
2023-03-18T01:06:51.936Z,11.10
2023-03-18T01:09:18.951Z,11.10
2023-03-18T01:12:01.571Z,11.20
2023-03-18T01:25:23.436Z,11.30
2023-03-18T01:27:50.650Z,11.30
2023-03-18T01:30:26.519Z,11.30
2023-03-18T01:32:54.799Z,11.30
2023-03-18T01:43:53.646Z,11.30
2023-03-18T01:46:49.551Z,11.40
2023-03-18T01:49:35.711Z,11.50
2023-03-18T01:55:00.260Z,11.60
2023-03-18T02:23:06.518Z,11.40
2023-03-18T03:03:16.208Z,11.40
2023-03-18T03:06:01.607Z,11.40
2023-03-18T03:08:37.208Z,11.40
2023-03-18T03:11:37.071Z,11.30
2023-03-18T03:14:10.654Z,11.30
2023-03-18T03:16:38.060Z,11.30
2023-03-18T03:22:00.262Z,11.30
2023-03-18T03:24:43.542Z,11.30
2023-03-18T03:30:53.125Z,11.20
2023-03-18T03:33:53.439Z,11.20
2023-03-18T03:47:10.322Z,11.20
2023-03-18T03:49:46.307Z,11.10
2023-03-18T03:52:13.194Z,11.10
2023-03-18T03:54:49.383Z,11.10
2023-03-18T03:57:17.482Z,11.20
2023-03-18T03:59:53.965Z,11.20
2023-03-18T04:02:22.571Z,11.20
2023-03-18T04:04:49.954Z,11.30
2023-03-18T04:07:28.535Z,11.20
2023-03-18T04:09:55.211Z,11.20
2023-03-18T04:12:21.920Z,11.30
2023-03-18T04:15:04.969Z,11.30
2023-03-18T04:17:31.650Z,11.20
2023-03-18T04:20:01.004Z,11.10
2023-03-18T04:22:40.763Z,11.00
2023-03-18T04:25:08.476Z,11.10
2023-03-18T04:27:35.255Z,11.10
2023-03-18T04:30:17.034Z,11.10
2023-03-18T04:32:44.306Z,11.10
2023-03-18T04:35:15.283Z,11.10
2023-03-18T04:37:54.601Z,11.10
2023-03-18T04:40:26.364Z,11.10
2023-03-18T04:47:13.399Z,11.10
2023-03-18T04:54:16.145Z,11.00
2023-03-18T05:00:00.605Z,10.80
2023-03-18T05:08:34.405Z,10.80
2023-03-18T05:11:01.308Z,10.70
2023-03-18T05:13:43.136Z,10.70
2023-03-18T05:16:09.909Z,10.70
2023-03-18T05:21:18.559Z,10.50
2023-03-18T05:23:45.535Z,10.50
2023-03-18T05:26:28.755Z,10.50
2023-03-18T05:28:55.616Z,10.50
2023-03-18T05:31:37.530Z,10.50
2023-03-18T05:34:04.299Z,10.60
2023-03-18T05:36:35.030Z,10.60
2023-03-18T05:56:01.327Z,10.30
2023-03-18T05:58:29.495Z,10.30
2023-03-18T06:01:03.140Z,10.30
2023-03-18T06:03:31.425Z,10.20
2023-03-18T06:05:58.390Z,10.20
2023-03-18T06:08:42.249Z,10.20
2023-03-18T06:16:48.441Z,10.10
2023-03-18T06:19:13.963Z,10.10
2023-03-18T06:29:46.569Z,10.00
2023-03-18T06:32:32.295Z,10.00
2023-03-18T06:34:59.365Z,10.00
2023-03-18T06:37:37.083Z,10.00
2023-03-18T06:40:04.688Z,10.00
2023-03-18T06:42:31.763Z,10.10
2023-03-18T06:45:27.426Z,10.10
2023-03-18T06:48:07.508Z,10.10
2023-03-18T06:50:34.360Z,10.10
2023-03-18T06:53:01.250Z,10.10
2023-03-18T06:55:40.580Z,10.10
2023-03-18T06:58:07.438Z,10.00
2023-03-18T07:00:46.673Z,10.00
2023-03-18T07:03:18.177Z,10.00
2023-03-18T07:05:59.875Z,10.00
2023-03-18T07:08:27.104Z,10.10
2023-03-18T07:13:44.900Z,10.30
2023-03-18T07:19:20.395Z,10.80
2023-03-18T07:30:03.631Z,11.70
2023-03-18T07:32:50.824Z,12.00
2023-03-18T07:35:30.126Z,12.70
2023-03-18T07:37:57.101Z,13.30
2023-03-18T07:40:32.994Z,13.80
2023-03-18T07:43:15.132Z,13.60
2023-03-18T07:45:55.049Z,13.20
2023-03-18T07:48:21.690Z,13.20
2023-03-18T07:50:54.471Z,13.40
2023-03-18T07:53:29.883Z,13.60
2023-03-18T07:55:56.575Z,13.80
2023-03-18T07:58:24.362Z,13.90
2023-03-18T08:00:52.626Z,14.00
2023-03-18T08:03:26.818Z,14.40
2023-03-18T08:06:05.200Z,14.80
2023-03-18T08:08:49.597Z,14.70
2023-03-18T10:48:25.501Z,16.40
2023-03-18T10:51:17.778Z,16.10
2023-03-18T10:54:16.279Z,16.00
2023-03-18T10:56:43.318Z,15.80
2023-03-18T10:59:14.060Z,15.80
2023-03-18T11:01:44.616Z,15.70
2023-03-18T11:04:19.875Z,15.60
2023-03-18T11:07:01.535Z,15.50
2023-03-18T11:09:38.223Z,15.50
2023-03-18T11:14:55.906Z,15.30
2023-03-18T11:39:18.614Z,15.00
2023-03-18T11:54:57.236Z,15.30
2023-03-18T12:14:32.866Z,15.70
2023-03-18T12:42:34.120Z,14.40
2023-03-18T12:45:15.418Z,14.50
2023-03-18T12:47:50.691Z,14.50
2023-03-18T12:50:17.925Z,14.50
2023-03-18T12:52:56.580Z,14.60
2023-03-18T12:55:42.191Z,14.70
2023-03-18T13:02:04.053Z,15.00
2023-03-18T13:04:55.388Z,15.30
2023-03-18T13:08:05.319Z,15.50
2023-03-18T13:10:48.594Z,16.20
2023-03-18T13:13:28.491Z,16.30
2023-03-18T13:16:08.411Z,16.30
2023-03-18T14:23:24.411Z,17.50
2023-03-18T14:26:01.873Z,17.70
2023-03-18T14:29:15.400Z,17.60
2023-03-18T14:31:42.350Z,17.70
2023-03-18T14:34:18.239Z,17.60
2023-03-18T14:40:54.826Z,17.70
2023-03-18T14:49:16.090Z,17.40
2023-03-18T15:00:15.690Z,16.90
2023-03-18T15:28:27.180Z,18.30
2023-03-18T15:36:59.291Z,18.50
2023-03-18T15:40:00.127Z,18.70
2023-03-18T15:42:28.432Z,18.80
2023-03-18T15:44:59.461Z,18.30
2023-03-18T15:47:32.229Z,17.70
2023-03-18T15:50:02.029Z,17.50
2023-03-18T15:52:34.405Z,17.20
2023-03-18T15:55:02.044Z,16.90
2023-03-18T15:57:39.498Z,16.90
2023-03-18T16:00:12.227Z,16.90
2023-03-18T16:02:48.648Z,17.00
2023-03-18T16:05:28.244Z,17.00
2023-03-18T16:08:00.434Z,16.90
2023-03-18T16:10:30.012Z,16.70
2023-03-18T16:13:06.186Z,16.60
2023-03-18T16:15:33.223Z,16.50
2023-03-18T16:20:44.164Z,16.40
2023-03-18T16:23:21.330Z,16.40
2023-03-18T16:34:22.752Z,16.40
2023-03-18T16:42:36.511Z,16.10
2023-03-18T16:45:04.036Z,16.00
2023-03-18T16:47:32.198Z,15.90
2023-03-18T16:50:17.134Z,15.90
2023-03-18T16:52:53.416Z,15.70
2023-03-18T16:55:32.803Z,15.70
2023-03-18T17:07:26.969Z,15.30
2023-03-18T17:11:14.881Z,15.20
2023-03-18T17:39:50.782Z,14.90
2023-03-18T18:00:06.196Z,14.40
2023-03-18T18:35:07.623Z,14.10
2023-03-18T18:37:37.308Z,14.10
2023-03-18T18:40:43.388Z,14.10
2023-03-18T18:43:13.077Z,14.10
2023-03-18T18:45:45.102Z,14.10
2023-03-18T18:48:22.587Z,14.00
2023-03-18T18:51:38.444Z,14.00
2023-03-18T18:57:15.109Z,14.10
2023-03-18T18:59:44.307Z,14.10
2023-03-18T19:02:43.429Z,14.10
2023-03-18T19:08:40.711Z,14.00
2023-03-18T19:11:07.819Z,14.00
2023-03-18T19:14:16.613Z,13.90
2023-03-18T19:23:36.953Z,13.80
2023-03-18T19:26:08.024Z,13.70
2023-03-18T19:28:47.572Z,13.70
2023-03-18T19:41:53.487Z,13.20
2023-03-18T19:59:39.484Z,12.30
2023-03-18T20:02:37.954Z,12.20
2023-03-18T20:07:54.551Z,12.00
2023-03-18T20:10:26.657Z,12.00
2023-03-18T20:12:55.255Z,11.90
2023-03-18T20:21:27.390Z,11.90
2023-03-18T20:27:08.952Z,11.90
2023-03-18T20:29:48.274Z,11.80
2023-03-18T20:35:21.193Z,11.80
2023-03-18T20:53:34.031Z,11.50
2023-03-18T20:56:26.217Z,11.50
2023-03-18T21:11:31.719Z,11.40
2023-03-18T21:29:10.382Z,11.30
2023-03-18T21:36:10.906Z,11.20
2023-03-18T21:45:16.103Z,11.20
2023-03-18T21:48:17.770Z,11.20
2023-03-18T21:51:05.460Z,11.20
2023-03-18T21:53:46.906Z,11.20
2023-03-18T21:59:22.707Z,11.20
2023-03-18T22:04:38.206Z,11.20
2023-03-18T22:07:06.406Z,11.20
